Time;durP1;ratioP1;P1;durP2;ratioP2;P2;SDS_P1;SDS_P2;PMS_P1;PMS_P2;Temp;Humidity;BMP_temperature;BMP_pressure;BME280_temperature;BME280_humidity;BME280_pressure;Samples;Min_cycle;Max_cycle;Signal;HPM_P1;HPM_P2
2022/01/31 00:00:35;;;;;;;34.15;24.50;;;;;;;;;;5033896;28;20244;-78
2022/01/31 00:03:02;;;;;;;33.17;24.17;;;;;;;;;;5033777;28;20242;-79
2022/01/31 00:05:30;;;;;;;25.08;22.83;;;;;;;;;;5033932;28;20230;-79
2022/01/31 00:07:57;;;;;;;29.02;25.20;;;;;;;;;;5033542;28;20196;-79
2022/01/31 00:10:29;;;;;;;26.15;23.40;;;;;;;;;;5033862;28;20196;-79
2022/01/31 00:13:02;;;;;;;34.08;24.75;;;;;;;;;;5033329;28;20308;-79
2022/01/31 00:15:29;;;;;;;35.28;25.58;;;;;;;;;;5033594;28;20191;-79
2022/01/31 00:17:57;;;;;;;33.20;24.15;;;;;;;;;;5033241;28;20195;-79
2022/01/31 00:20:24;;;;;;;32.13;24.75;;;;;;;;;;5033853;28;20225;-79
2022/01/31 00:22:52;;;;;;;40.13;25.65;;;;;;;;;;5033562;28;20217;-79
2022/01/31 00:25:19;;;;;;;33.75;24.75;;;;;;;;;;5033550;28;20193;-80
2022/01/31 00:27:48;;;;;;;34.30;24.80;;;;;;;;;;5033530;28;20185;-79
2022/01/31 00:30:16;;;;;;;35.65;24.05;;;;;;;;;;5033230;28;20285;-81
2022/01/31 00:32:43;;;;;;;30.23;23.63;;;;;;;;;;5033695;28;20189;-79
2022/01/31 00:35:11;;;;;;;36.65;24.45;;;;;;;;;;5033347;28;20194;-79
2022/01/31 00:37:39;;;;;;;28.77;24.35;;;;;;;;;;5033242;28;20239;-79
2022/01/31 00:40:07;;;;;;;27.25;24.40;;;;;;;;;;5032899;28;20264;-79
2022/01/31 00:42:35;;;;;;;26.30;23.25;;;;;;;;;;5032972;28;20223;-79
2022/01/31 00:45:12;;;;;;;24.60;22.02;;;;;;;;;;5032867;28;20683;-78
2022/01/31 00:47:41;;;;;;;41.20;25.33;;;;;;;;;;5033175;28;20273;-79
2022/01/31 00:50:10;;;;;;;27.98;24.35;;;;;;;;;;5032940;28;20221;-79
2022/01/31 00:52:39;;;;;;;32.33;25.60;;;;;;;;;;5032841;28;20205;-79
2022/01/31 00:55:07;;;;;;;29.77;24.17;;;;;;;;;;4999166;28;20252;-79
2022/01/31 00:57:34;;;;;;;25.13;22.60;;;;;;;;;;5032767;28;20206;-79
2022/01/31 01:00:04;;;;;;;29.80;24.10;;;;;;;;;;5032473;28;20221;-80
2022/01/31 01:02:32;;;;;;;24.98;22.48;;;;;;;;;;5032875;28;20234;-79
2022/01/31 01:04:59;;;;;;;29.42;22.95;;;;;;;;;;5033059;28;20214;-80
2022/01/31 01:07:26;;;;;;;25.25;22.95;;;;;;;;;;5032686;28;20186;-80
2022/01/31 01:09:54;;;;;;;25.02;22.73;;;;;;;;;;5033020;28;20189;-80
2022/01/31 01:12:21;;;;;;;28.35;25.40;;;;;;;;;;5032619;28;20253;-80
2022/01/31 01:14:50;;;;;;;27.38;23.38;;;;;;;;;;5015145;28;20544;-80
2022/01/31 01:17:18;;;;;;;28.45;23.35;;;;;;;;;;5032517;28;20281;-80
2022/01/31 01:19:46;;;;;;;26.85;24.05;;;;;;;;;;5032926;28;20199;-80
2022/01/31 01:22:13;;;;;;;25.23;22.73;;;;;;;;;;5032666;28;20203;-80
2022/01/31 01:24:41;;;;;;;25.42;22.83;;;;;;;;;;5032484;28;20198;-81
2022/01/31 01:27:10;;;;;;;27.48;24.70;;;;;;;;;;5032819;28;20195;-80
2022/01/31 01:29:37;;;;;;;27.42;24.40;;;;;;;;;;5032751;28;20207;-80
2022/01/31 01:32:05;;;;;;;26.90;23.95;;;;;;;;;;5032759;28;20252;-80
2022/01/31 01:34:35;;;;;;;27.45;24.88;;;;;;;;;;5032776;28;20199;-80
2022/01/31 01:37:03;;;;;;;25.08;22.77;;;;;;;;;;5032395;28;20711;-80
2022/01/31 01:39:30;;;;;;;22.25;20.73;;;;;;;;;;5032808;28;20194;-80
2022/01/31 01:41:58;;;;;;;24.33;22.05;;;;;;;;;;5032593;28;20198;-80
2022/01/31 01:44:45;;;;;;;27.17;24.15;;;;;;;;;;5032562;28;20217;-80
2022/01/31 01:47:13;;;;;;;25.63;23.20;;;;;;;;;;5032500;28;20194;-79
2022/01/31 01:49:41;;;;;;;28.40;21.90;;;;;;;;;;5032612;28;20245;-79
2022/01/31 01:52:09;;;;;;;25.67;22.48;;;;;;;;;;5032425;28;20641;-80
2022/01/31 01:54:36;;;;;;;27.88;24.80;;;;;;;;;;5032673;28;20190;-79
2022/01/31 01:57:04;;;;;;;26.83;23.85;;;;;;;;;;5032621;28;20195;-79
2022/01/31 01:59:34;;;;;;;25.98;23.33;;;;;;;;;;5032643;28;20636;-79
2022/01/31 02:02:02;;;;;;;27.80;24.15;;;;;;;;;;5032533;28;20234;-80
2022/01/31 02:04:29;;;;;;;24.92;22.65;;;;;;;;;;5032499;28;20218;-79
2022/01/31 02:06:58;;;;;;;26.98;24.17;;;;;;;;;;5015010;28;20194;-80
2022/01/31 02:09:29;;;;;;;24.83;22.88;;;;;;;;;;5032189;28;20201;-79
2022/01/31 02:11:57;;;;;;;26.13;23.70;;;;;;;;;;5033488;28;20203;-79
2022/01/31 02:14:24;;;;;;;21.95;20.20;;;;;;;;;;5035970;28;20321;-79
2022/01/31 02:16:52;;;;;;;26.92;24.10;;;;;;;;;;5036131;28;20191;-80
2022/01/31 02:19:21;;;;;;;26.05;23.40;;;;;;;;;;5036066;28;20195;-80
2022/01/31 02:21:51;;;;;;;25.20;22.83;;;;;;;;;;5035515;28;20202;-80
2022/01/31 02:24:19;;;;;;;25.15;22.67;;;;;;;;;;5035552;28;20730;-80
2022/01/31 02:26:46;;;;;;;23.88;21.92;;;;;;;;;;5035490;28;20598;-80
2022/01/31 02:29:14;;;;;;;24.90;22.67;;;;;;;;;;5018046;28;20423;-79
2022/01/31 02:31:44;;;;;;;24.25;22.20;;;;;;;;;;5035443;28;20601;-80
2022/01/31 02:34:11;;;;;;;25.63;23.27;;;;;;;;;;5035925;28;20199;-80
2022/01/31 02:36:39;;;;;;;25.63;23.20;;;;;;;;;;5035631;28;20196;-80
2022/01/31 02:39:08;;;;;;;25.80;23.35;;;;;;;;;;5035666;28;20348;-80
2022/01/31 02:41:40;;;;;;;24.58;22.52;;;;;;;;;;5035838;28;20541;-80
2022/01/31 02:44:14;;;;;;;23.35;21.65;;;;;;;;;;5035447;28;20221;-80
2022/01/31 02:46:46;;;;;;;23.80;21.75;;;;;;;;;;5035081;28;20202;-80
2022/01/31 02:49:15;;;;;;;23.38;21.45;;;;;;;;;;5035098;28;20209;-79
2022/01/31 02:51:47;;;;;;;23.85;21.70;;;;;;;;;;5035087;28;20286;-78
2022/01/31 02:54:15;;;;;;;24.45;22.13;;;;;;;;;;5035000;28;20248;-79
2022/01/31 02:56:43;;;;;;;24.27;21.88;;;;;;;;;;5035017;28;20242;-79
2022/01/31 02:59:10;;;;;;;23.95;21.48;;;;;;;;;;5035251;28;20190;-79
2022/01/31 03:01:37;;;;;;;23.20;21.40;;;;;;;;;;5035081;28;20688;-79
2022/01/31 03:04:05;;;;;;;25.95;22.58;;;;;;;;;;5035164;28;20265;-79
2022/01/31 03:06:33;;;;;;;23.80;21.48;;;;;;;;;;5035260;28;20197;-79
2022/01/31 03:09:00;;;;;;;24.10;21.55;;;;;;;;;;5034850;28;20632;-79
2022/01/31 03:11:29;;;;;;;23.63;20.85;;;;;;;;;;5034680;28;20263;-80
2022/01/31 03:13:56;;;;;;;24.65;22.33;;;;;;;;;;5034804;28;20246;-80
2022/01/31 03:16:24;;;;;;;24.20;22.23;;;;;;;;;;5017041;28;20228;-79
2022/01/31 03:18:51;;;;;;;23.38;21.48;;;;;;;;;;5034731;28;20652;-80
2022/01/31 03:21:18;;;;;;;22.90;21.15;;;;;;;;;;5034953;28;20195;-80
2022/01/31 03:23:50;;;;;;;24.77;22.75;;;;;;;;;;5033526;28;20269;-80
2022/01/31 03:26:17;;;;;;;22.58;21.08;;;;;;;;;;5034747;28;20191;-80
2022/01/31 03:28:49;;;;;;;24.33;22.45;;;;;;;;;;5034690;28;20286;-80
2022/01/31 03:31:18;;;;;;;24.02;22.00;;;;;;;;;;5034551;28;20237;-80
2022/01/31 03:33:46;;;;;;;24.30;21.70;;;;;;;;;;5034625;28;20197;-80
2022/01/31 03:36:13;;;;;;;24.45;22.15;;;;;;;;;;5034761;28;20193;-80
2022/01/31 03:38:41;;;;;;;23.33;21.52;;;;;;;;;;5034569;28;20648;-81
2022/01/31 03:41:09;;;;;;;26.95;24.17;;;;;;;;;;5016693;28;20207;-80
2022/01/31 03:43:36;;;;;;;24.40;22.00;;;;;;;;;;5034327;28;20233;-80
2022/01/31 03:46:05;;;;;;;24.33;22.00;;;;;;;;;;5034524;28;20201;-80
2022/01/31 03:48:33;;;;;;;23.52;21.83;;;;;;;;;;5034579;28;20199;-80
2022/01/31 03:51:02;;;;;;;24.33;22.17;;;;;;;;;;5034405;28;20218;-82
2022/01/31 03:53:30;;;;;;;29.88;23.90;;;;;;;;;;5033996;28;20198;-80
2022/01/31 03:55:57;;;;;;;26.13;23.67;;;;;;;;;;5034326;28;20204;-80
2022/01/31 03:58:24;;;;;;;25.90;23.65;;;;;;;;;;5033975;28;20252;-78
2022/01/31 04:00:52;;;;;;;28.88;27.00;;;;;;;;;;5033822;28;20209;-79
2022/01/31 04:03:21;;;;;;;25.10;23.27;;;;;;;;;;5033916;28;20391;-79
2022/01/31 04:05:48;;;;;;;23.67;22.08;;;;;;;;;;5033725;28;20259;-79
2022/01/31 04:08:16;;;;;;;26.30;24.45;;;;;;;;;;5033806;28;20651;-78
2022/01/31 04:10:43;;;;;;;26.88;24.58;;;;;;;;;;5033498;28;20204;-79
2022/01/31 04:13:11;;;;;;;27.55;25.20;;;;;;;;;;5033144;28;20241;-78
2022/01/31 04:15:39;;;;;;;30.30;25.00;;;;;;;;;;5033687;28;20630;-78
2022/01/31 04:18:07;;;;;;;29.95;27.20;;;;;;;;;;5033643;28;20226;-78
2022/01/31 04:20:36;;;;;;;29.73;26.67;;;;;;;;;;5033407;28;20196;-78
2022/01/31 04:23:08;;;;;;;29.60;26.65;;;;;;;;;;5033250;28;20193;-79
2022/01/31 04:25:44;;;;;;;33.63;30.00;;;;;;;;;;5033213;28;20194;-79
2022/01/31 04:28:18;;;;;;;35.70;32.30;;;;;;;;;;5033242;28;20243;-78
2022/01/31 04:30:52;;;;;;;35.60;31.95;;;;;;;;;;5033215;28;20251;-79
2022/01/31 04:33:19;;;;;;;32.78;30.33;;;;;;;;;;5033369;28;20224;-79
2022/01/31 04:35:48;;;;;;;34.85;32.30;;;;;;;;;;5032431;28;20619;-78
2022/01/31 04:38:16;;;;;;;45.40;37.13;;;;;;;;;;5033069;28;20714;-79
2022/01/31 04:40:43;;;;;;;39.75;36.55;;;;;;;;;;5033064;28;20186;-78
2022/01/31 04:43:11;;;;;;;41.70;38.28;;;;;;;;;;5032826;28;20197;-78
2022/01/31 04:45:38;;;;;;;39.00;36.20;;;;;;;;;;5032935;28;20205;-79
2022/01/31 04:48:06;;;;;;;39.17;35.85;;;;;;;;;;5033081;28;20192;-81
2022/01/31 04:50:33;;;;;;;37.90;35.28;;;;;;;;;;5032976;28;20712;-79
2022/01/31 04:53:02;;;;;;;36.28;33.60;;;;;;;;;;5033283;28;20199;-79
2022/01/31 04:55:30;;;;;;;37.53;35.10;;;;;;;;;;5015298;28;20205;-79
2022/01/31 04:57:58;;;;;;;38.50;35.60;;;;;;;;;;5015187;28;20212;-79
2022/01/31 05:00:25;;;;;;;40.20;37.20;;;;;;;;;;5033175;28;20192;-78
2022/01/31 05:02:54;;;;;;;44.40;40.17;;;;;;;;;;5032898;28;20225;-79
2022/01/31 05:05:21;;;;;;;47.08;40.60;;;;;;;;;;5032940;28;20229;-79
2022/01/31 05:07:51;;;;;;;41.58;37.88;;;;;;;;;;5032662;28;20640;-79
2022/01/31 05:10:20;;;;;;;39.78;36.72;;;;;;;;;;5033067;28;20196;-79
2022/01/31 05:12:48;;;;;;;35.20;33.22;;;;;;;;;;5032683;28;20267;-80
2022/01/31 05:15:15;;;;;;;41.10;38.05;;;;;;;;;;5032766;28;20202;-79
2022/01/31 05:17:42;;;;;;;40.67;37.50;;;;;;;;;;5032562;28;20189;-79
2022/01/31 05:20:10;;;;;;;40.03;37.08;;;;;;;;;;5032962;28;20190;-80
2022/01/31 05:22:37;;;;;;;42.90;39.15;;;;;;;;;;5032786;28;20550;-78
2022/01/31 05:25:05;;;;;;;41.47;38.83;;;;;;;;;;5032769;28;20213;-79
2022/01/31 05:27:33;;;;;;;43.58;40.40;;;;;;;;;;5032807;28;20200;-79
2022/01/31 05:30:01;;;;;;;44.05;40.53;;;;;;;;;;5032544;28;20201;-79
2022/01/31 05:32:28;;;;;;;38.53;35.63;;;;;;;;;;5032894;28;20235;-79
2022/01/31 05:34:56;;;;;;;45.15;41.60;;;;;;;;;;5014912;28;20239;-79
2022/01/31 05:37:23;;;;;;;44.30;41.10;;;;;;;;;;5015252;28;20529;-79
2022/01/31 05:39:50;;;;;;;46.53;42.85;;;;;;;;;;5032366;28;20189;-79
2022/01/31 05:42:18;;;;;;;45.78;42.47;;;;;;;;;;5032708;28;20189;-79
2022/01/31 05:44:47;;;;;;;39.17;36.83;;;;;;;;;;5032363;28;20228;-79
2022/01/31 05:47:14;;;;;;;44.42;41.22;;;;;;;;;;5034265;28;20190;-79
2022/01/31 05:49:42;;;;;;;43.92;40.80;;;;;;;;;;5018446;28;20616;-79
2022/01/31 05:52:09;;;;;;;46.63;43.28;;;;;;;;;;5036228;28;20267;-79
2022/01/31 05:54:38;;;;;;;42.05;39.42;;;;;;;;;;5036087;28;20197;-79
2022/01/31 05:57:05;;;;;;;47.95;44.15;;;;;;;;;;5036328;28;20654;-79
2022/01/31 05:59:33;;;;;;;41.40;38.72;;;;;;;;;;5036343;28;20197;-79
2022/01/31 06:02:02;;;;;;;48.35;44.67;;;;;;;;;;5018406;28;20230;-78
2022/01/31 06:04:29;;;;;;;42.65;39.92;;;;;;;;;;5035797;28;20264;-78
2022/01/31 06:06:57;;;;;;;46.95;43.42;;;;;;;;;;5036315;28;20189;-78
2022/01/31 06:09:26;;;;;;;44.83;41.47;;;;;;;;;;5035835;28;20702;-78
2022/01/31 06:11:53;;;;;;;41.75;38.65;;;;;;;;;;5035697;28;20256;-78
2022/01/31 06:14:21;;;;;;;46.05;42.20;;;;;;;;;;5035620;28;20803;-78
2022/01/31 06:16:48;;;;;;;49.92;45.33;;;;;;;;;;5035837;28;20227;-79
2022/01/31 06:19:17;;;;;;;52.70;48.38;;;;;;;;;;5035579;28;20613;-78
2022/01/31 06:21:44;;;;;;;41.88;39.17;;;;;;;;;;5035914;28;20189;-78
2022/01/31 06:24:13;;;;;;;51.45;46.97;;;;;;;;;;5035407;28;20620;-78
2022/01/31 06:26:41;;;;;;;48.38;44.55;;;;;;;;;;5035515;28;20193;-78
2022/01/31 06:29:08;;;;;;;47.88;43.97;;;;;;;;;;5035751;28;20193;-78
2022/01/31 06:31:36;;;;;;;48.40;44.50;;;;;;;;;;5035594;28;20299;-78
2022/01/31 06:34:03;;;;;;;44.05;40.65;;;;;;;;;;5018136;28;20609;-79
2022/01/31 06:36:32;;;;;;;50.83;46.28;;;;;;;;;;5035576;28;20249;-79
2022/01/31 06:39:00;;;;;;;45.05;41.47;;;;;;;;;;5035412;28;20189;-78
2022/01/31 06:41:28;;;;;;;44.90;41.33;;;;;;;;;;5035544;28;20239;-78
2022/01/31 06:43:56;;;;;;;51.40;46.83;;;;;;;;;;5018176;28;20204;-79
2022/01/31 06:46:23;;;;;;;44.08;40.92;;;;;;;;;;5035543;28;20285;-78
2022/01/31 06:48:50;;;;;;;42.70;39.50;;;;;;;;;;5035460;28;20267;-79
2022/01/31 06:51:19;;;;;;;47.70;43.80;;;;;;;;;;5034900;28;20701;-79
2022/01/31 06:53:49;;;;;;;44.35;40.78;;;;;;;;;;5035285;28;20236;-78
2022/01/31 06:56:17;;;;;;;49.38;45.58;;;;;;;;;;5035172;28;20280;-79
2022/01/31 06:58:44;;;;;;;39.20;36.90;;;;;;;;;;5034146;28;20194;-78
2022/01/31 07:01:11;;;;;;;45.60;41.97;;;;;;;;;;5035370;28;20234;-79
2022/01/31 07:03:40;;;;;;;39.30;37.08;;;;;;;;;;5034913;28;20628;-79
2022/01/31 07:06:07;;;;;;;44.78;41.17;;;;;;;;;;5034822;28;20205;-79
2022/01/31 07:08:35;;;;;;;44.58;41.47;;;;;;;;;;5034779;28;20197;-79
2022/01/31 07:11:04;;;;;;;46.35;42.72;;;;;;;;;;5034847;28;20202;-80
2022/01/31 07:13:38;;;;;;;42.08;39.08;;;;;;;;;;5034935;28;20248;-79
2022/01/31 07:16:06;;;;;;;43.42;39.78;;;;;;;;;;5034938;28;20192;-79
2022/01/31 07:18:35;;;;;;;39.28;36.83;;;;;;;;;;5034669;28;20186;-79
2022/01/31 07:21:03;;;;;;;45.58;41.83;;;;;;;;;;5017508;28;20201;-79
2022/01/31 07:23:49;;;;;;;45.08;41.67;;;;;;;;;;5034853;28;20189;-79
2022/01/31 07:26:18;;;;;;;40.15;37.45;;;;;;;;;;5034715;28;20298;-79
2022/01/31 07:28:45;;;;;;;44.83;41.22;;;;;;;;;;5034651;28;20186;-79
2022/01/31 07:31:13;;;;;;;44.30;40.45;;;;;;;;;;5016839;28;20232;-81
2022/01/31 07:33:42;;;;;;;39.25;36.65;;;;;;;;;;5035692;28;20191;-79
2022/01/31 07:36:10;;;;;;;45.05;40.65;;;;;;;;;;5034652;28;20592;-79
2022/01/31 07:38:37;;;;;;;41.17;38.45;;;;;;;;;;5034592;28;20239;-80
2022/01/31 07:41:04;;;;;;;41.72;38.83;;;;;;;;;;5034396;28;20596;-79
2022/01/31 07:43:34;;;;;;;41.80;38.28;;;;;;;;;;5034735;28;20195;-80
2022/01/31 07:46:01;;;;;;;39.60;36.55;;;;;;;;;;5034372;28;20320;-79
2022/01/31 07:48:31;;;;;;;36.95;34.15;;;;;;;;;;5034230;28;20193;-80
2022/01/31 07:50:58;;;;;;;36.70;34.67;;;;;;;;;;5034555;28;20244;-80
2022/01/31 07:53:25;;;;;;;38.55;35.85;;;;;;;;;;5034451;28;20190;-81
2022/01/31 07:55:53;;;;;;;35.90;33.67;;;;;;;;;;5016536;28;20229;-79
2022/01/31 07:58:21;;;;;;;34.95;32.50;;;;;;;;;;5033930;28;20554;-79
2022/01/31 08:00:50;;;;;;;34.80;32.75;;;;;;;;;;5033745;28;20331;-80
2022/01/31 08:03:17;;;;;;;36.63;33.88;;;;;;;;;;5033793;28;20659;-79
2022/01/31 08:05:44;;;;;;;36.58;34.08;;;;;;;;;;5034087;28;20218;-80
2022/01/31 08:08:12;;;;;;;37.78;34.92;;;;;;;;;;5034218;28;20186;-80
2022/01/31 08:10:39;;;;;;;35.20;33.00;;;;;;;;;;5034090;28;20201;-80
2022/01/31 08:13:08;;;;;;;38.90;34.90;;;;;;;;;;5033662;28;20236;-80
2022/01/31 08:15:45;;;;;;;36.65;34.25;;;;;;;;;;5016684;28;20285;-80
2022/01/31 08:18:14;;;;;;;34.17;32.08;;;;;;;;;;5030904;28;20194;-79
2022/01/31 08:20:42;;;;;;;36.13;33.83;;;;;;;;;;5033534;28;20248;-79
2022/01/31 08:23:10;;;;;;;36.25;33.97;;;;;;;;;;5033653;28;20191;-80
2022/01/31 08:25:37;;;;;;;35.90;33.65;;;;;;;;;;5015739;28;20267;-79
2022/01/31 08:28:09;;;;;;;34.70;32.60;;;;;;;;;;5033408;28;20629;-79
2022/01/31 08:30:44;;;;;;;37.60;34.95;;;;;;;;;;5033313;28;20203;-77
2022/01/31 08:33:14;;;;;;;34.53;32.22;;;;;;;;;;5033492;28;20284;-79
2022/01/31 08:35:50;;;;;;;37.33;34.83;;;;;;;;;;5033416;28;20198;-80
2022/01/31 08:38:18;;;;;;;33.10;31.33;;;;;;;;;;5033345;28;20196;-80
2022/01/31 08:40:45;;;;;;;35.15;32.85;;;;;;;;;;5033305;28;20639;-80
2022/01/31 08:43:14;;;;;;;31.55;29.85;;;;;;;;;;5034208;28;20673;-85
2022/01/31 08:45:42;;;;;;;33.35;31.35;;;;;;;;;;5034332;28;20222;-82
2022/01/31 08:48:09;;;;;;;36.17;33.50;;;;;;;;;;5033700;28;20280;-81
2022/01/31 08:50:37;;;;;;;36.97;34.78;;;;;;;;;;5034185;28;20199;-84
2022/01/31 08:53:06;;;;;;;38.38;35.63;;;;;;;;;;5000167;28;20205;-83
2022/01/31 08:55:34;;;;;;;35.50;33.40;;;;;;;;;;5015595;28;20204;-82
2022/01/31 08:58:02;;;;;;;35.92;33.53;;;;;;;;;;5016257;28;20201;-82
2022/01/31 09:00:34;;;;;;;38.42;36.22;;;;;;;;;;5033256;28;20315;-85
2022/01/31 09:03:17;;;;;;;36.97;34.78;;;;;;;;;;5033583;28;20273;-84
2022/01/31 09:05:44;;;;;;;37.00;34.70;;;;;;;;;;5033183;28;20386;-85
2022/01/31 09:08:13;;;;;;;40.47;37.90;;;;;;;;;;5033390;28;20196;-80
2022/01/31 09:10:43;;;;;;;39.75;37.10;;;;;;;;;;5033714;28;20606;-85
2022/01/31 09:13:12;;;;;;;40.33;37.72;;;;;;;;;;5033715;28;20256;-83
2022/01/31 09:15:40;;;;;;;38.05;35.75;;;;;;;;;;5033586;28;20185;-83
2022/01/31 09:18:08;;;;;;;39.25;36.90;;;;;;;;;;5033731;28;20279;-81
2022/01/31 09:20:35;;;;;;;36.45;34.33;;;;;;;;;;5034077;28;20225;-84
2022/01/31 09:23:03;;;;;;;37.10;34.97;;;;;;;;;;5037444;28;20185;-85
2022/01/31 09:25:32;;;;;;;39.30;36.78;;;;;;;;;;5037035;28;20721;-81
2022/01/31 09:27:59;;;;;;;34.20;32.40;;;;;;;;;;5038065;28;20634;-82
2022/01/31 09:30:27;;;;;;;33.17;31.38;;;;;;;;;;5038713;28;20699;-85
2022/01/31 09:32:55;;;;;;;31.60;29.90;;;;;;;;;;5038073;28;20229;-82
2022/01/31 09:35:23;;;;;;;33.95;32.15;;;;;;;;;;5037400;28;20277;-90
2022/01/31 09:37:50;;;;;;;32.63;30.83;;;;;;;;;;5020105;28;20200;-85
2022/01/31 09:40:20;;;;;;;33.55;31.65;;;;;;;;;;5036304;28;20193;-85
2022/01/31 09:43:06;;;;;;;35.10;32.90;;;;;;;;;;5038353;28;20225;-84
2022/01/31 09:45:50;;;;;;;36.63;34.53;;;;;;;;;;5037668;28;20220;-81
2022/01/31 09:48:35;;;;;;;33.80;31.60;;;;;;;;;;5037681;28;20599;-84
2022/01/31 09:51:05;;;;;;;33.83;31.90;;;;;;;;;;5037494;28;20555;-85
2022/01/31 09:53:33;;;;;;;35.03;32.95;;;;;;;;;;5037271;28;20215;-83
2022/01/31 09:56:02;;;;;;;35.90;33.65;;;;;;;;;;5037281;28;20197;-82
2022/01/31 09:58:31;;;;;;;33.85;31.73;;;;;;;;;;5037032;28;20238;-84
2022/01/31 10:01:09;;;;;;;38.53;36.33;;;;;;;;;;5036947;28;20235;-89
2022/01/31 10:03:45;;;;;;;40.42;38.00;;;;;;;;;;5037754;28;20269;-83
2022/01/31 10:06:23;;;;;;;34.03;31.85;;;;;;;;;;5036689;28;20218;-82
2022/01/31 10:09:00;;;;;;;34.90;32.80;;;;;;;;;;5019832;28;20193;-82
2022/01/31 10:11:30;;;;;;;31.10;29.30;;;;;;;;;;5037090;28;20682;-83
2022/01/31 10:16:54;;;;;;;35.60;33.08;;;;;;;;;;5037083;28;20249;-83
2022/01/31 10:19:22;;;;;;;34.95;32.70;;;;;;;;;;5036345;28;20212;-81
2022/01/31 10:22:00;;;;;;;35.00;33.00;;;;;;;;;;5037723;28;20528;-81
2022/01/31 10:24:29;;;;;;;33.20;31.20;;;;;;;;;;5036476;28;20196;-81
2022/01/31 10:26:57;;;;;;;37.42;35.22;;;;;;;;;;5035645;28;20221;-83
2022/01/31 10:29:26;;;;;;;34.83;32.67;;;;;;;;;;5036004;28;20186;-78
2022/01/31 10:31:54;;;;;;;35.05;32.85;;;;;;;;;;5035852;28;20256;-76
2022/01/31 10:34:24;;;;;;;35.05;32.95;;;;;;;;;;5035854;28;20245;-84
2022/01/31 10:36:52;;;;;;;35.08;33.08;;;;;;;;;;5037160;28;20211;-91
2022/01/31 10:45:24;;;;;;;33.75;31.75;;;;;;;;;;5039698;28;20233;-93
2022/01/31 10:51:10;;;;;;;32.60;30.80;;;;;;;;;;5035566;28;20244;-82
2022/01/31 10:53:40;;;;;;;33.90;31.90;;;;;;;;;;5036567;28;20199;-87
2022/01/31 10:56:07;;;;;;;35.75;33.55;;;;;;;;;;5036207;28;20236;-82
2022/01/31 10:58:35;;;;;;;34.05;32.05;;;;;;;;;;5036256;28;20197;-85
2022/01/31 11:01:17;;;;;;;34.85;32.65;;;;;;;;;;5035389;28;20239;-80
2022/01/31 11:03:45;;;;;;;34.08;32.08;;;;;;;;;;5035675;28;20186;-84
2022/01/31 11:06:13;;;;;;;35.95;33.80;;;;;;;;;;5036658;28;20217;-81
2022/01/31 11:08:40;;;;;;;36.33;34.22;;;;;;;;;;5035334;28;20192;-82
2022/01/31 11:11:08;;;;;;;35.10;33.00;;;;;;;;;;5036256;28;20199;-90
2022/01/31 11:13:37;;;;;;;37.80;35.28;;;;;;;;;;5035464;28;20244;-88
2022/01/31 11:16:06;;;;;;;35.80;33.40;;;;;;;;;;5036941;28;20190;-88
2022/01/31 11:18:36;;;;;;;35.35;33.22;;;;;;;;;;5035961;28;20200;-89
2022/01/31 11:21:04;;;;;;;36.00;33.70;;;;;;;;;;5036334;28;20193;-89
2022/01/31 11:23:37;;;;;;;36.58;34.28;;;;;;;;;;5019167;28;20235;-89
2022/01/31 11:26:05;;;;;;;35.58;33.47;;;;;;;;;;5035595;28;20249;-87
2022/01/31 11:28:33;;;;;;;33.70;31.80;;;;;;;;;;5036171;28;20208;-88
2022/01/31 11:31:01;;;;;;;35.10;32.90;;;;;;;;;;5036148;28;20597;-88
2022/01/31 11:33:29;;;;;;;35.92;33.63;;;;;;;;;;5037164;28;20189;-87
2022/01/31 11:35:59;;;;;;;37.33;34.95;;;;;;;;;;5035753;28;20199;-86
2022/01/31 11:38:27;;;;;;;36.38;34.28;;;;;;;;;;5035914;28;20198;-88
2022/01/31 11:40:55;;;;;;;34.08;31.98;;;;;;;;;;5035914;28;20216;-87
2022/01/31 11:43:24;;;;;;;35.10;32.95;;;;;;;;;;5036023;28;20319;-88
2022/01/31 11:45:53;;;;;;;35.55;33.45;;;;;;;;;;5035135;28;20218;-87
2022/01/31 11:48:22;;;;;;;35.65;33.55;;;;;;;;;;5035028;28;20193;-88
2022/01/31 11:50:52;;;;;;;36.35;34.15;;;;;;;;;;5035876;28;20190;-86
2022/01/31 11:53:28;;;;;;;36.22;34.03;;;;;;;;;;5035232;28;20210;-85
2022/01/31 11:56:00;;;;;;;35.95;33.75;;;;;;;;;;5035358;28;20186;-85
2022/01/31 11:58:31;;;;;;;36.13;34.03;;;;;;;;;;5035458;28;20198;-86
2022/01/31 12:01:02;;;;;;;37.42;35.17;;;;;;;;;;5035386;28;20234;-86
2022/01/31 12:03:30;;;;;;;37.38;34.90;;;;;;;;;;5035630;28;20192;-85
2022/01/31 12:05:57;;;;;;;36.55;34.45;;;;;;;;;;5035081;28;20591;-85
2022/01/31 12:08:37;;;;;;;35.88;33.78;;;;;;;;;;5035577;28;20190;-85
2022/01/31 12:11:11;;;;;;;38.00;35.50;;;;;;;;;;5035059;28;20643;-85
2022/01/31 12:13:41;;;;;;;34.30;32.30;;;;;;;;;;5034682;28;20232;-85
2022/01/31 12:16:22;;;;;;;35.80;33.70;;;;;;;;;;5035066;28;20197;-84
2022/01/31 12:19:03;;;;;;;35.50;33.40;;;;;;;;;;5034905;28;20198;-85
2022/01/31 12:24:35;;;;;;;35.10;33.00;;;;;;;;;;4974234;28;20713;-86
2022/01/31 12:27:21;;;;;;;36.33;34.10;;;;;;;;;;4973779;28;20703;-85
2022/01/31 12:29:50;;;;;;;35.90;33.60;;;;;;;;;;4974077;28;20196;-87
2022/01/31 12:32:19;;;;;;;33.95;31.95;;;;;;;;;;4974132;28;20212;-86
2022/01/31 12:34:53;;;;;;;36.25;34.10;;;;;;;;;;4973936;28;20199;-85
2022/01/31 12:37:23;;;;;;;34.78;32.67;;;;;;;;;;4973703;28;20407;-85
2022/01/31 12:39:58;;;;;;;35.80;33.60;;;;;;;;;;4973568;28;20257;-86
2022/01/31 12:45:34;;;;;;;35.55;33.30;;;;;;;;;;4964321;28;20295;-86
2022/01/31 12:48:19;;;;;;;37.72;35.38;;;;;;;;;;4973497;28;20369;-85
2022/01/31 12:51:00;;;;;;;35.65;33.25;;;;;;;;;;4973526;28;20276;-85
2022/01/31 12:53:46;;;;;;;37.53;35.05;;;;;;;;;;4973511;28;20204;-85
2022/01/31 12:56:20;;;;;;;36.60;34.50;;;;;;;;;;4972655;28;20235;-85
2022/01/31 12:58:50;;;;;;;33.53;31.42;;;;;;;;;;5005317;28;20283;-90
2022/01/31 13:01:18;;;;;;;33.40;31.40;;;;;;;;;;5033441;28;20256;-88
2022/01/31 13:03:46;;;;;;;34.33;32.25;;;;;;;;;;5034016;28;20996;-92
2022/01/31 13:06:32;;;;;;;35.25;32.85;;;;;;;;;;5033692;28;20222;-85
2022/01/31 13:09:00;;;;;;;35.25;32.85;;;;;;;;;;5016574;28;20785;-87
2022/01/31 13:11:28;;;;;;;34.92;32.63;;;;;;;;;;5034505;28;20213;-87
2022/01/31 13:14:04;;;;;;;36.97;34.50;;;;;;;;;;5034013;28;20276;-88
2022/01/31 13:16:38;;;;;;;37.63;35.35;;;;;;;;;;5034563;28;20191;-89
2022/01/31 13:19:11;;;;;;;38.85;36.35;;;;;;;;;;5034526;28;20218;-89
2022/01/31 13:21:39;;;;;;;37.97;35.75;;;;;;;;;;5034268;28;20206;-89
2022/01/31 13:24:07;;;;;;;38.95;36.20;;;;;;;;;;5033999;28;20194;-89
2022/01/31 13:26:48;;;;;;;37.65;35.45;;;;;;;;;;5034118;28;20578;-87
2022/01/31 13:29:29;;;;;;;37.28;34.70;;;;;;;;;;5034215;28;20191;-89
2022/01/31 13:31:56;;;;;;;36.17;34.03;;;;;;;;;;5034107;28;20607;-89
2022/01/31 13:34:34;;;;;;;33.97;31.55;;;;;;;;;;5034304;28;20198;-89
2022/01/31 13:37:01;;;;;;;33.97;31.77;;;;;;;;;;5033153;28;20199;-89
2022/01/31 13:39:28;;;;;;;32.08;30.17;;;;;;;;;;5033933;28;20638;-89
2022/01/31 13:41:56;;;;;;;31.75;29.77;;;;;;;;;;5033963;28;20196;-86
2022/01/31 13:44:24;;;;;;;30.30;28.45;;;;;;;;;;5033627;28;20250;-87
2022/01/31 13:46:59;;;;;;;31.33;29.42;;;;;;;;;;5016698;28;20219;-83
2022/01/31 13:49:34;;;;;;;33.22;31.05;;;;;;;;;;5033433;28;20192;-84
2022/01/31 13:52:01;;;;;;;31.98;29.85;;;;;;;;;;5033613;28;20274;-92
2022/01/31 13:54:29;;;;;;;30.80;28.98;;;;;;;;;;5034196;28;20622;-95
2022/01/31 13:56:58;;;;;;;29.17;27.55;;;;;;;;;;5034069;28;20191;-90
2022/01/31 13:59:26;;;;;;;29.13;27.02;;;;;;;;;;5033918;28;20253;-90
2022/01/31 14:02:08;;;;;;;27.63;25.33;;;;;;;;;;5033428;28;20261;-90
2022/01/31 14:04:37;;;;;;;27.80;26.15;;;;;;;;;;5033911;28;20230;-92
2022/01/31 14:07:04;;;;;;;26.80;25.15;;;;;;;;;;5034586;28;20223;-93
2022/01/31 14:09:33;;;;;;;27.23;25.63;;;;;;;;;;5038076;28;20195;-91
2022/01/31 14:12:00;;;;;;;27.23;25.45;;;;;;;;;;5037671;28;20192;-92
2022/01/31 14:14:28;;;;;;;27.77;25.67;;;;;;;;;;5037701;28;20621;-93
2022/01/31 14:16:56;;;;;;;25.10;23.60;;;;;;;;;;5037706;28;20225;-93
2022/01/31 14:19:26;;;;;;;24.77;23.45;;;;;;;;;;5037544;28;20188;-92
2022/01/31 14:21:56;;;;;;;25.23;23.55;;;;;;;;;;5037469;28;20212;-91
2022/01/31 14:24:30;;;;;;;23.90;22.40;;;;;;;;;;5037514;28;20194;-92
2022/01/31 14:27:02;;;;;;;23.95;22.42;;;;;;;;;;5020515;28;20217;-92
2022/01/31 14:29:29;;;;;;;23.60;22.20;;;;;;;;;;5037616;28;20616;-92
2022/01/31 14:31:58;;;;;;;24.25;22.75;;;;;;;;;;5037139;28;20195;-91
2022/01/31 14:34:27;;;;;;;24.20;22.50;;;;;;;;;;5019308;28;20603;-90
2022/01/31 14:37:00;;;;;;;25.90;23.80;;;;;;;;;;5036637;28;20203;-90
2022/01/31 14:39:47;;;;;;;25.25;23.35;;;;;;;;;;5037241;28;20638;-90
2022/01/31 14:42:36;;;;;;;23.75;22.00;;;;;;;;;;5036925;28;20280;-90
2022/01/31 14:47:51;;;;;;;24.23;22.80;;;;;;;;;;5036592;28;20225;-85
2022/01/31 14:50:21;;;;;;;25.73;23.33;;;;;;;;;;5036681;28;20206;-86